sensor_id;sensor_type;location;lat;lon;timestamp;pressure;altitude;pressure_sealevel;temperature;humidity
8637;BME280;4356;49.068;8.658;2023-04-04T00:00:11;100831.03;;;16.90;34.33
8637;BME280;4356;49.068;8.658;2023-04-04T00:02:37;100837.13;;;16.92;34.06
8637;BME280;4356;49.068;8.658;2023-04-04T00:05:04;100819.91;;;16.85;34.20
8637;BME280;4356;49.068;8.658;2023-04-04T00:07:30;100822.03;;;16.89;34.17
8637;BME280;4356;49.068;8.658;2023-04-04T00:09:55;100823.44;;;16.85;34.39
8637;BME280;4356;49.068;8.658;2023-04-04T00:12:23;100821.19;;;16.89;34.23
8637;BME280;4356;49.068;8.658;2023-04-04T00:14:49;100822.41;;;16.86;34.37
8637;BME280;4356;49.068;8.658;2023-04-04T00:17:15;100819.91;;;16.85;34.41
8637;BME280;4356;49.068;8.658;2023-04-04T00:19:41;100803.97;;;16.82;34.30
8637;BME280;4356;49.068;8.658;2023-04-04T00:22:07;100808.19;;;16.84;34.26
8637;BME280;4356;49.068;8.658;2023-04-04T00:24:33;100794.16;;;16.81;34.42
8637;BME280;4356;49.068;8.658;2023-04-04T00:26:59;100793.69;;;16.77;34.05
8637;BME280;4356;49.068;8.658;2023-04-04T00:29:24;100799.59;;;16.81;33.99
8637;BME280;4356;49.068;8.658;2023-04-04T00:31:50;100793.69;;;16.77;33.81
8637;BME280;4356;49.068;8.658;2023-04-04T00:34:16;100795.75;;;16.75;33.92
8637;BME280;4356;49.068;8.658;2023-04-04T00:36:41;100796.41;;;16.77;34.08
8637;BME280;4356;49.068;8.658;2023-04-04T00:39:07;100808.09;;;16.78;34.10
8637;BME280;4356;49.068;8.658;2023-04-04T00:41:34;100801.84;;;16.77;33.99
8637;BME280;4356;49.068;8.658;2023-04-04T00:44:00;100794.25;;;16.73;33.74
8637;BME280;4356;49.068;8.658;2023-04-04T00:46:27;100790.72;;;16.72;34.04
8637;BME280;4356;49.068;8.658;2023-04-04T00:48:54;100793.88;;;16.76;34.02
8637;BME280;4356;49.068;8.658;2023-04-04T00:51:20;100794.25;;;16.73;33.90
8637;BME280;4356;49.068;8.658;2023-04-04T00:53:47;100786.28;;;16.71;34.05
8637;BME280;4356;49.068;8.658;2023-04-04T00:56:13;100791.53;;;16.73;33.92
8637;BME280;4356;49.068;8.658;2023-04-04T00:58:40;100790.72;;;16.72;33.93
8637;BME280;4356;49.068;8.658;2023-04-04T01:01:07;100797.16;;;16.71;34.10
8637;BME280;4356;49.068;8.658;2023-04-04T01:03:35;100791.25;;;16.68;33.93
8637;BME280;4356;49.068;8.658;2023-04-04T01:06:02;100768.50;;;16.54;34.14
8637;BME280;4356;49.068;8.658;2023-04-04T01:08:29;100778.72;;;16.67;34.19
8637;BME280;4356;49.068;8.658;2023-04-04T01:10:55;100793.97;;;16.68;34.15
8637;BME280;4356;49.068;8.658;2023-04-04T01:13:21;100790.59;;;16.66;33.97
8637;BME280;4356;49.068;8.658;2023-04-04T01:19:15;100794.34;;;16.65;34.22
8637;BME280;4356;49.068;8.658;2023-04-04T01:21:44;100770.75;;;16.51;34.25
8637;BME280;4356;49.068;8.658;2023-04-04T01:24:11;100780.50;;;16.60;34.16
8637;BME280;4356;49.068;8.658;2023-04-04T01:26:40;100781.53;;;16.59;34.18
8637;BME280;4356;49.068;8.658;2023-04-04T01:29:06;100774.97;;;16.53;34.36
8637;BME280;4356;49.068;8.658;2023-04-04T01:31:41;100785.91;;;16.60;34.00
8637;BME280;4356;49.068;8.658;2023-04-04T01:34:19;100782.59;;;16.58;33.89
8637;BME280;4356;49.068;8.658;2023-04-04T01:37:05;100777.50;;;16.55;33.74
8637;BME280;4356;49.068;8.658;2023-04-04T01:39:38;100790.72;;;16.58;33.97
8637;BME280;4356;49.068;8.658;2023-04-04T01:42:07;100787.16;;;16.57;34.00
8637;BME280;4356;49.068;8.658;2023-04-04T01:44:34;100782.59;;;16.58;33.85
8637;BME280;4356;49.068;8.658;2023-04-04T01:47:00;100781.91;;;16.56;33.83
8637;BME280;4356;49.068;8.658;2023-04-04T01:49:27;100773.78;;;16.56;33.71
8637;BME280;4356;49.068;8.658;2023-04-04T01:51:54;100773.78;;;16.56;34.00
8637;BME280;4356;49.068;8.658;2023-04-04T01:54:20;100769.75;;;16.52;33.99
8637;BME280;4356;49.068;8.658;2023-04-04T01:56:47;100779.38;;;16.54;34.05
8637;BME280;4356;49.068;8.658;2023-04-04T01:59:12;100768.25;;;16.49;34.06
8637;BME280;4356;49.068;8.658;2023-04-04T02:01:38;100772.47;;;16.52;33.92
8637;BME280;4356;49.068;8.658;2023-04-04T02:04:04;100762.16;;;16.47;33.91
8637;BME280;4356;49.068;8.658;2023-04-04T02:06:30;100772.66;;;16.50;33.70
8637;BME280;4356;49.068;8.658;2023-04-04T02:08:55;100775.56;;;16.49;34.07
8637;BME280;4356;49.068;8.658;2023-04-04T02:11:21;100767.59;;;16.47;33.99
8637;BME280;4356;49.068;8.658;2023-04-04T02:13:48;100771.16;;;16.48;34.10
8637;BME280;4356;49.068;8.658;2023-04-04T02:16:14;100763.09;;;16.39;34.01
8637;BME280;4356;49.068;8.658;2023-04-04T02:18:40;100774.41;;;16.43;34.08
8637;BME280;4356;49.068;8.658;2023-04-04T02:21:06;100759.34;;;16.40;33.89
8637;BME280;4356;49.068;8.658;2023-04-04T02:23:31;100768.53;;;16.39;33.85
8637;BME280;4356;49.068;8.658;2023-04-04T02:25:57;100770.00;;;16.42;33.76
8637;BME280;4356;49.068;8.658;2023-04-04T02:28:23;100778.59;;;16.45;33.78
8637;BME280;4356;49.068;8.658;2023-04-04T02:30:49;100766.81;;;16.38;33.74
8637;BME280;4356;49.068;8.658;2023-04-04T02:33:15;100776.28;;;16.42;33.80
8637;BME280;4356;49.068;8.658;2023-04-04T02:35:41;100774.75;;;16.40;34.01
8637;BME280;4356;49.068;8.658;2023-04-04T02:38:07;100776.66;;;16.39;33.78
8637;BME280;4356;49.068;8.658;2023-04-04T02:40:32;100772.63;;;16.35;33.82
8637;BME280;4356;49.068;8.658;2023-04-04T02:42:58;100746.63;;;16.26;33.88
8637;BME280;4356;49.068;8.658;2023-04-04T02:45:23;100770.56;;;16.37;33.85
8637;BME280;4356;49.068;8.658;2023-04-04T02:47:51;100762.13;;;16.32;34.12
8637;BME280;4356;49.068;8.658;2023-04-04T02:50:17;100770.56;;;16.37;33.98
8637;BME280;4356;49.068;8.658;2023-04-04T02:52:43;100762.97;;;16.33;34.13
8637;BME280;4356;49.068;8.658;2023-04-04T02:55:09;100763.44;;;16.36;34.04
8637;BME280;4356;49.068;8.658;2023-04-04T02:57:34;100768.03;;;16.36;33.88
8637;BME280;4356;49.068;8.658;2023-04-04T03:00:00;100770.28;;;16.32;33.74
8637;BME280;4356;49.068;8.658;2023-04-04T03:02:28;100768.41;;;16.33;33.99
8637;BME280;4356;49.068;8.658;2023-04-04T03:04:54;100768.41;;;16.33;33.66
8637;BME280;4356;49.068;8.658;2023-04-04T03:07:20;100758.28;;;16.27;33.84
8637;BME280;4356;49.068;8.658;2023-04-04T03:09:47;100769.66;;;16.30;33.81
8637;BME280;4356;49.068;8.658;2023-04-04T03:12:13;100742.13;;;16.19;34.17
8637;BME280;4356;49.068;8.658;2023-04-04T03:14:39;100755.78;;;16.25;33.91
8637;BME280;4356;49.068;8.658;2023-04-04T03:17:05;100754.97;;;16.25;34.20
8637;BME280;4356;49.068;8.658;2023-04-04T03:19:32;100763.56;;;16.28;33.76
8637;BME280;4356;49.068;8.658;2023-04-04T03:22:00;100762.44;;;16.23;33.81
8637;BME280;4356;49.068;8.658;2023-04-04T03:24:26;100767.09;;;16.29;33.98
8637;BME280;4356;49.068;8.658;2023-04-04T03:26:53;100749.81;;;16.15;33.98
8637;BME280;4356;49.068;8.658;2023-04-04T03:29:19;100768.50;;;16.25;33.72
8637;BME280;4356;49.068;8.658;2023-04-04T03:31:44;100758.69;;;16.24;34.03
8637;BME280;4356;49.068;8.658;2023-04-04T03:34:10;100754.09;;;16.24;33.83
8637;BME280;4356;49.068;8.658;2023-04-04T03:36:36;100749.06;;;16.21;33.74
8637;BME280;4356;49.068;8.658;2023-04-04T03:39:02;100759.53;;;16.24;33.99
8637;BME280;4356;49.068;8.658;2023-04-04T03:41:28;100760.53;;;16.23;33.90
8637;BME280;4356;49.068;8.658;2023-04-04T03:43:53;100757.34;;;16.20;33.92
8637;BME280;4356;49.068;8.658;2023-04-04T03:46:19;100754.66;;;16.20;33.85
8637;BME280;4356;49.068;8.658;2023-04-04T03:48:44;100757.56;;;16.18;33.60
8637;BME280;4356;49.068;8.658;2023-04-04T03:51:10;100764.50;;;16.21;33.90
8637;BME280;4356;49.068;8.658;2023-04-04T03:53:36;100766.53;;;16.19;33.90
8637;BME280;4356;49.068;8.658;2023-04-04T03:56:02;100769.91;;;16.21;34.05
8637;BME280;4356;49.068;8.658;2023-04-04T03:58:28;100766.06;;;16.15;33.75
8637;BME280;4356;49.068;8.658;2023-04-04T04:00:54;100775.53;;;16.19;33.75
8637;BME280;4356;49.068;8.658;2023-04-04T04:03:20;100760.53;;;16.09;33.81
8637;BME280;4356;49.068;8.658;2023-04-04T04:05:46;100770.66;;;16.15;33.97
8637;BME280;4356;49.068;8.658;2023-04-04T04:08:12;100773.16;;;16.16;33.68
8637;BME280;4356;49.068;8.658;2023-04-04T04:10:38;100772.88;;;16.11;33.90
8637;BME280;4356;49.068;8.658;2023-04-04T04:13:03;100776.91;;;16.15;33.78
8637;BME280;4356;49.068;8.658;2023-04-04T04:15:29;100775.88;;;16.16;33.75
8637;BME280;4356;49.068;8.658;2023-04-04T04:17:55;100775.22;;;16.14;33.78
8637;BME280;4356;49.068;8.658;2023-04-04T04:20:21;100780.00;;;16.12;33.62
8637;BME280;4356;49.068;8.658;2023-04-04T04:22:47;100782.53;;;16.14;33.79
8637;BME280;4356;49.068;8.658;2023-04-04T04:25:14;100773.06;;;16.10;33.90
8637;BME280;4356;49.068;8.658;2023-04-04T04:27:40;100766.34;;;16.06;33.85
8637;BME280;4356;49.068;8.658;2023-04-04T04:30:06;100772.59;;;16.06;33.87
8637;BME280;4356;49.068;8.658;2023-04-04T04:32:32;100774.28;;;16.07;33.91
8637;BME280;4356;49.068;8.658;2023-04-04T04:34:58;100781.22;;;16.10;33.94
8637;BME280;4356;49.068;8.658;2023-04-04T04:37:24;100774.28;;;16.07;33.79
8637;BME280;4356;49.068;8.658;2023-04-04T04:39:51;100780.53;;;16.08;34.07
8637;BME280;4356;49.068;8.658;2023-04-04T04:42:17;100772.13;;;16.03;33.77
8637;BME280;4356;49.068;8.658;2023-04-04T04:44:43;100778.88;;;16.07;33.70
8637;BME280;4356;49.068;8.658;2023-04-04T04:47:08;100785.31;;;16.06;33.81
8637;BME280;4356;49.068;8.658;2023-04-04T04:49:34;100772.78;;;16.05;33.67
8637;BME280;4356;49.068;8.658;2023-04-04T04:52:00;100776.50;;;16.04;33.76
8637;BME280;4356;49.068;8.658;2023-04-04T04:54:27;100775.03;;;16.01;33.84
8637;BME280;4356;49.068;8.658;2023-04-04T04:56:52;100774.00;;;16.02;33.81
8637;BME280;4356;49.068;8.658;2023-04-04T04:59:18;100776.72;;;16.02;33.60
8637;BME280;4356;49.068;8.658;2023-04-04T05:01:44;100774.19;;;16.01;33.92
8637;BME280;4356;49.068;8.658;2023-04-04T05:04:10;100782.59;;;16.06;33.64
8637;BME280;4356;49.068;8.658;2023-04-04T05:06:35;100782.41;;;16.07;33.69
8637;BME280;4356;49.068;8.658;2023-04-04T05:09:03;100787.84;;;16.07;33.63
8637;BME280;4356;49.068;8.658;2023-04-04T05:11:29;100777.38;;;16.04;33.69
8637;BME280;4356;49.068;8.658;2023-04-04T05:13:56;100782.22;;;16.09;33.95
8637;BME280;4356;49.068;8.658;2023-04-04T05:16:23;100785.44;;;16.12;33.59
8637;BME280;4356;49.068;8.658;2023-04-04T05:18:48;100789.44;;;16.16;33.96
8637;BME280;4356;49.068;8.658;2023-04-04T05:21:14;100778.31;;;16.11;34.02
8637;BME280;4356;49.068;8.658;2023-04-04T05:23:40;100787.94;;;16.14;33.68
8637;BME280;4356;49.068;8.658;2023-04-04T05:26:06;100787.56;;;16.17;33.67
8637;BME280;4356;49.068;8.658;2023-04-04T05:28:31;100785.06;;;16.15;33.71
8637;BME280;4356;49.068;8.658;2023-04-04T05:30:57;100793.19;;;16.15;33.78
8637;BME280;4356;49.068;8.658;2023-04-04T05:33:23;100797.09;;;16.13;33.54
8637;BME280;4356;49.068;8.658;2023-04-04T05:35:48;100803.00;;;16.16;33.69
8637;BME280;4356;49.068;8.658;2023-04-04T05:38:15;100800.66;;;16.13;32.66
8637;BME280;4356;49.068;8.658;2023-04-04T05:40:42;100808.13;;;16.11;32.90
8637;BME280;4356;49.068;8.658;2023-04-04T05:43:10;100779.66;;;15.93;32.72
8637;BME280;4356;49.068;8.658;2023-04-04T05:45:35;100799.91;;;16.05;32.87
8637;BME280;4356;49.068;8.658;2023-04-04T05:48:01;100791.66;;;15.98;33.00
8637;BME280;4356;49.068;8.658;2023-04-04T05:50:35;100806.63;;;16.09;32.87
8637;BME280;4356;49.068;8.658;2023-04-04T05:53:01;100782.84;;;15.96;33.08
8637;BME280;4356;49.068;8.658;2023-04-04T05:55:27;100800.38;;;16.08;33.07
8637;BME280;4356;49.068;8.658;2023-04-04T05:57:53;100802.25;;;16.08;32.68
8637;BME280;4356;49.068;8.658;2023-04-04T06:00:19;100783.03;;;15.95;32.80
8637;BME280;4356;49.068;8.658;2023-04-04T06:02:45;100795.69;;;16.02;32.69
8637;BME280;4356;49.068;8.658;2023-04-04T06:05:11;100787.75;;;16.01;32.63
8637;BME280;4356;49.068;8.658;2023-04-04T06:07:37;100789.06;;;16.05;32.47
8637;BME280;4356;49.068;8.658;2023-04-04T06:10:03;100807.41;;;16.17;32.59
8637;BME280;4356;49.068;8.658;2023-04-04T06:12:29;100809.06;;;16.18;32.54
8637;BME280;4356;49.068;8.658;2023-04-04T06:14:56;100811.59;;;16.20;32.57
8637;BME280;4356;49.068;8.658;2023-04-04T06:17:25;100808.22;;;16.18;32.48
8637;BME280;4356;49.068;8.658;2023-04-04T06:19:50;100809.56;;;16.22;32.57
8637;BME280;4356;49.068;8.658;2023-04-04T06:22:17;100804.13;;;16.22;32.70
8637;BME280;4356;49.068;8.658;2023-04-04T06:24:42;100809.28;;;16.31;30.95
8637;BME280;4356;49.068;8.658;2023-04-04T06:27:08;100814.25;;;16.42;31.65
8637;BME280;4356;49.068;8.658;2023-04-04T06:29:34;100813.72;;;16.47;32.18
8637;BME280;4356;49.068;8.658;2023-04-04T06:31:59;100800.75;;;16.34;32.21
8637;BME280;4356;49.068;8.658;2023-04-04T06:34:26;100819.13;;;16.47;32.48
8637;BME280;4356;49.068;8.658;2023-04-04T06:36:51;100813.34;;;16.50;32.51
8637;BME280;4356;49.068;8.658;2023-04-04T06:39:17;100805.47;;;16.40;32.40
8637;BME280;4356;49.068;8.658;2023-04-04T06:41:43;100805.72;;;16.45;32.63
8637;BME280;4356;49.068;8.658;2023-04-04T06:44:08;100802.84;;;16.47;32.68
8637;BME280;4356;49.068;8.658;2023-04-04T06:46:37;100816.88;;;16.51;32.55
8637;BME280;4356;49.068;8.658;2023-04-04T06:49:03;100807.75;;;16.52;32.50
8637;BME280;4356;49.068;8.658;2023-04-04T06:51:29;100822.63;;;16.56;33.14
8637;BME280;4356;49.068;8.658;2023-04-04T06:53:55;100804.88;;;16.45;32.64
8637;BME280;4356;49.068;8.658;2023-04-04T06:56:21;100817.84;;;16.58;32.94
8637;BME280;4356;49.068;8.658;2023-04-04T06:58:47;100800.63;;;16.51;32.85
8637;BME280;4356;49.068;8.658;2023-04-04T07:01:13;100813.91;;;16.60;32.90
8637;BME280;4356;49.068;8.658;2023-04-04T07:03:39;100815.22;;;16.64;32.72
8637;BME280;4356;49.068;8.658;2023-04-04T07:06:05;100796.69;;;16.53;32.87
8637;BME280;4356;49.068;8.658;2023-04-04T07:08:31;100816.72;;;16.67;32.78
8637;BME280;4356;49.068;8.658;2023-04-04T07:10:58;100808.59;;;16.67;32.91
8637;BME280;4356;49.068;8.658;2023-04-04T07:13:24;100818.88;;;16.71;33.32
8637;BME280;4356;49.068;8.658;2023-04-04T07:15:50;100814.63;;;16.69;32.93
8637;BME280;4356;49.068;8.658;2023-04-04T07:18:17;100811.56;;;16.72;32.80
8637;BME280;4356;49.068;8.658;2023-04-04T07:20:45;100807.00;;;16.72;32.79
8637;BME280;4356;49.068;8.658;2023-04-04T07:23:12;100815.03;;;16.80;32.72
8637;BME280;4356;49.068;8.658;2023-04-04T07:25:38;100824.28;;;16.86;32.71
8637;BME280;4356;49.068;8.658;2023-04-04T07:28:04;100814.00;;;16.81;32.97
8637;BME280;4356;49.068;8.658;2023-04-04T07:30:29;100821.19;;;16.89;32.75
8637;BME280;4356;49.068;8.658;2023-04-04T07:33:03;100821.00;;;16.90;32.80
8637;BME280;4356;49.068;8.658;2023-04-04T07:35:29;100810.78;;;16.92;33.28
8637;BME280;4356;49.068;8.658;2023-04-04T07:37:54;100799.28;;;16.90;32.84
8637;BME280;4356;49.068;8.658;2023-04-04T07:40:20;100802.28;;;16.95;33.02
8637;BME280;4356;49.068;8.658;2023-04-04T07:42:46;100796.66;;;16.97;32.81
8637;BME280;4356;49.068;8.658;2023-04-04T07:45:16;100795.44;;;16.99;33.03
8637;BME280;4356;49.068;8.658;2023-04-04T07:47:43;100794.00;;;17.03;32.99
8637;BME280;4356;49.068;8.658;2023-04-04T07:50:09;100801.78;;;17.06;32.93
8637;BME280;4356;49.068;8.658;2023-04-04T07:52:39;100795.50;;;17.06;33.04
8637;BME280;4356;49.068;8.658;2023-04-04T07:55:05;100802.25;;;17.10;33.42
8637;BME280;4356;49.068;8.658;2023-04-04T07:57:38;100800.19;;;17.12;33.44
8637;BME280;4356;49.068;8.658;2023-04-04T08:00:07;100788.00;;;17.08;33.29
8637;BME280;4356;49.068;8.658;2023-04-04T08:02:36;100779.00;;;17.07;33.21
8637;BME280;4356;49.068;8.658;2023-04-04T08:05:02;100798.19;;;17.20;33.46
8637;BME280;4356;49.068;8.658;2023-04-04T08:07:28;100796.78;;;17.24;33.41
8637;BME280;4356;49.068;8.658;2023-04-04T08:09:53;100798.03;;;17.28;33.17
8637;BME280;4356;49.068;8.658;2023-04-04T08:12:20;100797.88;;;17.30;33.07
8637;BME280;4356;49.068;8.658;2023-04-04T08:14:45;100791.41;;;17.31;32.97
8637;BME280;4356;49.068;8.658;2023-04-04T08:17:11;100794.16;;;17.37;33.34
8637;BME280;4356;49.068;8.658;2023-04-04T08:19:37;100788.94;;;17.36;33.32
8637;BME280;4356;49.068;8.658;2023-04-04T08:22:03;100776.75;;;17.32;33.23
8637;BME280;4356;49.068;8.658;2023-04-04T08:24:32;100786.31;;;17.42;33.44
8637;BME280;4356;49.068;8.658;2023-04-04T08:26:59;100792.69;;;17.50;33.44
8637;BME280;4356;49.068;8.658;2023-04-04T08:29:24;100788.25;;;17.48;32.86
8637;BME280;4356;49.068;8.658;2023-04-04T08:31:51;100772.91;;;17.41;32.83
8637;BME280;4356;49.068;8.658;2023-04-04T08:34:18;100797.16;;;17.57;32.83
8637;BME280;4356;49.068;8.658;2023-04-04T08:36:45;100794.88;;;17.61;32.21
8637;BME280;4356;49.068;8.658;2023-04-04T08:39:10;100787.09;;;17.58;32.61
8637;BME280;4356;49.068;8.658;2023-04-04T08:41:38;100791.56;;;17.65;32.64
8637;BME280;4356;49.068;8.658;2023-04-04T08:44:07;100799.59;;;17.73;32.10
8637;BME280;4356;49.068;8.658;2023-04-04T08:46:35;100801.25;;;17.74;32.13
8637;BME280;4356;49.068;8.658;2023-04-04T08:49:02;100791.03;;;17.76;31.92
8637;BME280;4356;49.068;8.658;2023-04-04T08:51:30;100801.78;;;17.84;31.65
8637;BME280;4356;49.068;8.658;2023-04-04T08:53:57;100786.69;;;17.82;31.36
8637;BME280;4356;49.068;8.658;2023-04-04T08:56:24;100799.97;;;17.91;30.78
8637;BME280;4356;49.068;8.658;2023-04-04T08:58:50;100794.31;;;17.93;30.71
8637;BME280;4356;49.068;8.658;2023-04-04T09:01:16;100806.50;;;17.97;30.54
8637;BME280;4356;49.068;8.658;2023-04-04T09:03:42;100785.72;;;17.89;30.03
8637;BME280;4356;49.068;8.658;2023-04-04T09:06:08;100801.75;;;18.05;30.63
8637;BME280;4356;49.068;8.658;2023-04-04T09:08:34;100795.47;;;18.05;30.30
8637;BME280;4356;49.068;8.658;2023-04-04T09:11:02;100804.50;;;18.12;30.48
8637;BME280;4356;49.068;8.658;2023-04-04T09:13:28;100800.97;;;18.11;29.57
8637;BME280;4356;49.068;8.658;2023-04-04T09:15:55;100790.13;;;18.18;29.99
8637;BME280;4356;49.068;8.658;2023-04-04T09:18:22;100794.13;;;18.22;29.65
8637;BME280;4356;49.068;8.658;2023-04-04T09:20:48;100794.78;;;18.24;29.67
8637;BME280;4356;49.068;8.658;2023-04-04T09:23:18;100777.56;;;18.17;29.77
8637;BME280;4356;49.068;8.658;2023-04-04T09:25:49;100786.66;;;18.30;29.41
8637;BME280;4356;49.068;8.658;2023-04-04T09:28:15;100788.78;;;18.35;29.63
8637;BME280;4356;49.068;8.658;2023-04-04T09:30:42;100784.59;;;18.39;29.53
8637;BME280;4356;49.068;8.658;2023-04-04T09:33:12;100782.72;;;18.39;28.13
8637;BME280;4356;49.068;8.658;2023-04-04T09:35:39;100775.69;;;18.45;28.43
8637;BME280;4356;49.068;8.658;2023-04-04T09:38:08;100782.19;;;18.44;28.89
8637;BME280;4356;49.068;8.658;2023-04-04T09:40:40;100784.06;;;18.50;28.24
8637;BME280;4356;49.068;8.658;2023-04-04T09:43:10;100782.84;;;18.53;28.62
8637;BME280;4356;49.068;8.658;2023-04-04T09:45:39;100758.31;;;18.46;28.78
8637;BME280;4356;49.068;8.658;2023-04-04T09:48:05;100776.41;;;18.60;29.10
8637;BME280;4356;49.068;8.658;2023-04-04T09:50:35;100779.94;;;18.61;28.81
8637;BME280;4356;49.068;8.658;2023-04-04T09:53:01;100758.13;;;18.54;28.87
8637;BME280;4356;49.068;8.658;2023-04-04T09:55:36;100787.94;;;18.69;28.22
8637;BME280;4356;49.068;8.658;2023-04-04T09:58:19;100773.09;;;18.71;28.57
8637;BME280;4356;49.068;8.658;2023-04-04T10:00:48;100752.97;;;18.66;29.05
8637;BME280;4356;49.068;8.658;2023-04-04T10:03:14;100779.22;;;18.80;28.48
8637;BME280;4356;49.068;8.658;2023-04-04T10:05:41;100778.59;;;18.84;28.99
8637;BME280;4356;49.068;8.658;2023-04-04T10:08:14;100775.47;;;18.87;28.13
8637;BME280;4356;49.068;8.658;2023-04-04T10:10:50;100788.91;;;18.95;27.71
8637;BME280;4356;49.068;8.658;2023-04-04T10:13:27;100781.38;;;18.97;27.78
8637;BME280;4356;49.068;8.658;2023-04-04T10:15:57;100776.34;;;19.01;28.41
8637;BME280;4356;49.068;8.658;2023-04-04T10:18:25;100769.66;;;19.03;28.50
8637;BME280;4356;49.068;8.658;2023-04-04T10:20:56;100781.41;;;19.10;28.38
8637;BME280;4356;49.068;8.658;2023-04-04T10:23:23;100771.59;;;19.16;28.54
8637;BME280;4356;49.068;8.658;2023-04-04T10:25:51;100776.22;;;19.22;28.34
8637;BME280;4356;49.068;8.658;2023-04-04T10:28:18;100747.88;;;19.10;28.28
8637;BME280;4356;49.068;8.658;2023-04-04T10:36:02;100765.13;;;19.30;27.87
8637;BME280;4356;49.068;8.658;2023-04-04T10:38:39;100773.38;;;19.43;27.47
8637;BME280;4356;49.068;8.658;2023-04-04T10:41:06;100772.53;;;19.49;27.77
8637;BME280;4356;49.068;8.658;2023-04-04T10:43:34;100765.81;;;19.52;27.97
8637;BME280;4356;49.068;8.658;2023-04-04T10:46:14;100759.13;;;19.54;27.77
8637;BME280;4356;49.068;8.658;2023-04-04T10:48:40;100755.75;;;19.52;27.85
8637;BME280;4356;49.068;8.658;2023-04-04T10:51:09;100762.25;;;19.64;27.42
8637;BME280;4356;49.068;8.658;2023-04-04T10:53:37;100751.78;;;19.61;27.35
8637;BME280;4356;49.068;8.658;2023-04-04T10:56:04;100766.69;;;19.78;27.42
8637;BME280;4356;49.068;8.658;2023-04-04T10:58:31;100767.50;;;19.79;27.74
8637;BME280;4356;49.068;8.658;2023-04-04T11:00:58;100761.22;;;19.85;26.35
8637;BME280;4356;49.068;8.658;2023-04-04T11:03:24;100747.38;;;19.80;26.83
8637;BME280;4356;49.068;8.658;2023-04-04T11:05:50;100762.91;;;19.92;27.23
8637;BME280;4356;49.068;8.658;2023-04-04T11:08:25;100760.59;;;19.96;26.56
8637;BME280;4356;49.068;8.658;2023-04-04T11:10:52;100754.06;;;19.97;26.66
8637;BME280;4356;49.068;8.658;2023-04-04T11:13:26;100741.06;;;19.99;26.50
8637;BME280;4356;49.068;8.658;2023-04-04T11:15:57;100753.03;;;20.11;26.60
8637;BME280;4356;49.068;8.658;2023-04-04T11:21:03;100742.53;;;20.14;26.82
8637;BME280;4356;49.068;8.658;2023-04-04T11:26:11;100746.31;;;20.26;27.23
8637;BME280;4356;49.068;8.658;2023-04-04T11:33:56;100745.44;;;20.39;26.71
8637;BME280;4356;49.068;8.658;2023-04-04T11:44:39;100730.69;;;20.53;26.91
8637;BME280;4356;49.068;8.658;2023-04-04T11:49:37;100737.19;;;20.59;27.25
8637;BME280;4356;49.068;8.658;2023-04-04T11:52:04;100743.91;;;20.63;27.36
8637;BME280;4356;49.068;8.658;2023-04-04T11:54:35;100732.13;;;20.62;27.23
8637;BME280;4356;49.068;8.658;2023-04-04T11:57:02;100721.81;;;20.64;27.17
8637;BME280;4356;49.068;8.658;2023-04-04T11:59:30;100724.16;;;20.67;26.75
8637;BME280;4356;49.068;8.658;2023-04-04T12:01:56;100721.81;;;20.71;26.48
8637;BME280;4356;49.068;8.658;2023-04-04T12:04:24;100717.38;;;20.76;26.38
8637;BME280;4356;49.068;8.658;2023-04-04T12:06:52;100707.94;;;20.72;26.97
8637;BME280;4356;49.068;8.658;2023-04-04T12:09:19;100712.50;;;20.78;26.64
8637;BME280;4356;49.068;8.658;2023-04-04T12:11:48;100709.59;;;20.80;26.74
8637;BME280;4356;49.068;8.658;2023-04-04T12:14:22;100717.97;;;20.85;27.03
8637;BME280;4356;49.068;8.658;2023-04-04T12:16:54;100712.50;;;20.85;27.64
8637;BME280;4356;49.068;8.658;2023-04-04T12:19:25;100707.22;;;20.90;26.42
8637;BME280;4356;49.068;8.658;2023-04-04T12:21:52;100707.22;;;20.90;26.59
8637;BME280;4356;49.068;8.658;2023-04-04T12:24:19;100699.00;;;20.90;26.03
8637;BME280;4356;49.068;8.658;2023-04-04T12:26:47;100701.91;;;20.95;26.15
8637;BME280;4356;49.068;8.658;2023-04-04T12:29:15;100703.16;;;20.99;25.51
8637;BME280;4356;49.068;8.658;2023-04-04T12:31:43;100693.13;;;20.99;25.49
8637;BME280;4356;49.068;8.658;2023-04-04T12:34:23;100695.63;;;21.01;25.03
8637;BME280;4356;49.068;8.658;2023-04-04T12:36:54;100692.44;;;21.04;25.19
8637;BME280;4356;49.068;8.658;2023-04-04T12:39:21;100693.91;;;21.06;25.50
8637;BME280;4356;49.068;8.658;2023-04-04T12:44:29;100695.78;;;21.12;25.09
8637;BME280;4356;49.068;8.658;2023-04-04T12:47:01;100698.50;;;21.12;25.21
8637;BME280;4356;49.068;8.658;2023-04-04T12:49:33;100686.91;;;21.17;25.32
8637;BME280;4356;49.068;8.658;2023-04-04T12:52:04;100694.66;;;21.20;25.48
8637;BME280;4356;49.068;8.658;2023-04-04T12:54:34;100675.97;;;21.17;25.26
8637;BME280;4356;49.068;8.658;2023-04-04T12:57:04;100681.59;;;21.22;25.10
8637;BME280;4356;49.068;8.658;2023-04-04T12:59:34;100677.81;;;21.23;24.66
8637;BME280;4356;49.068;8.658;2023-04-04T13:02:02;100687.25;;;21.27;25.10
8637;BME280;4356;49.068;8.658;2023-04-04T13:04:31;100682.38;;;21.29;25.21
8637;BME280;4356;49.068;8.658;2023-04-04T13:06:57;100659.94;;;21.27;25.61
8637;BME280;4356;49.068;8.658;2023-04-04T13:09:25;100666.59;;;21.31;25.13
8637;BME280;4356;49.068;8.658;2023-04-04T13:14:21;100664.66;;;21.38;25.74
8637;BME280;4356;49.068;8.658;2023-04-04T13:17:01;100663.22;;;21.35;25.04
8637;BME280;4356;49.068;8.658;2023-04-04T13:19:28;100685.47;;;21.39;26.50
8637;BME280;4356;49.068;8.658;2023-04-04T13:21:54;100670.13;;;21.38;25.92
8637;BME280;4356;49.068;8.658;2023-04-04T13:24:19;100657.53;;;21.37;25.23
8637;BME280;4356;49.068;8.658;2023-04-04T13:26:46;100654.78;;;21.37;25.39
8637;BME280;4356;49.068;8.658;2023-04-04T13:29:11;100645.50;;;21.38;25.14
8637;BME280;4356;49.068;8.658;2023-04-04T13:31:37;100653.28;;;21.41;24.87
8637;BME280;4356;49.068;8.658;2023-04-04T13:34:04;100646.59;;;21.37;24.47
8637;BME280;4356;49.068;8.658;2023-04-04T13:36:29;100644.63;;;21.44;24.96
8637;BME280;4356;49.068;8.658;2023-04-04T13:38:55;100640.22;;;21.43;25.25
8637;BME280;4356;49.068;8.658;2023-04-04T13:41:21;100643.59;;;21.45;24.98
8637;BME280;4356;49.068;8.658;2023-04-04T13:43:47;100632.19;;;21.48;25.06